Time;durP1;ratioP1;P1;durP2;ratioP2;P2;SDS_P1;SDS_P2;PMS_P1;PMS_P2;Temp;Humidity;BMP_temperature;BMP_pressure;BME280_temperature;BME280_humidity;BME280_pressure;Samples;Min_cycle;Max_cycle;Signal;HPM_P1;HPM_P2
2023/05/15 00:01:44;;;;;;;13.43;11.02;;;17.70;62.50;;;;;;5048535;28;20460;-45
2023/05/15 00:04:12;;;;;;;16.20;11.93;;;17.80;62.90;;;;;;5051548;28;20041;-45
2023/05/15 00:06:42;;;;;;;15.65;11.98;;;17.70;62.50;;;;;;5044930;28;20040;-45
2023/05/15 00:09:11;;;;;;;15.00;10.82;;;17.70;62.60;;;;;;5049190;28;20048;-46
2023/05/15 00:11:41;;;;;;;12.25;10.88;;;17.70;62.70;;;;;;5048595;28;20591;-45
2023/05/15 00:14:10;;;;;;;13.57;11.07;;;17.70;62.60;;;;;;5050611;28;20051;-46
2023/05/15 00:16:40;;;;;;;12.63;11.32;;;17.70;62.50;;;;;;5047480;28;20141;-46
2023/05/15 00:19:07;;;;;;;14.38;12.07;;;17.70;62.40;;;;;;5048570;28;20075;-47
2023/05/15 00:21:36;;;;;;;13.68;11.55;;;17.70;62.40;;;;;;5047567;28;20063;-49
2023/05/15 00:24:02;;;;;;;13.52;10.23;;;17.70;62.20;;;;;;5049902;28;20049;-48
2023/05/15 00:26:29;;;;;;;11.75;10.30;;;17.60;62.10;;;;;;5049289;28;20044;-47
2023/05/15 00:29:04;;;;;;;12.80;10.23;;;17.60;61.90;;;;;;5034345;28;20045;-48
2023/05/15 00:31:35;;;;;;;12.05;10.75;;;17.60;62.00;;;;;;5028634;28;20325;-47
2023/05/15 00:34:01;;;;;;;12.85;11.55;;;17.50;61.80;;;;;;5027943;28;20053;-48
2023/05/15 00:36:30;;;;;;;13.43;10.55;;;17.50;61.70;;;;;;5041162;28;20065;-49
2023/05/15 00:38:59;;;;;;;11.20;10.10;;;17.40;61.70;;;;;;5047839;28;20061;-48
2023/05/15 00:41:27;;;;;;;13.77;10.98;;;17.40;61.80;;;;;;5030060;28;20068;-49
2023/05/15 00:43:59;;;;;;;12.38;10.48;;;17.30;61.70;;;;;;5052723;28;20111;-47
2023/05/15 00:46:31;;;;;;;14.32;11.20;;;17.30;61.70;;;;;;5049186;28;20072;-46
2023/05/15 00:48:59;;;;;;;12.13;10.80;;;17.30;62.10;;;;;;5030407;28;20098;-50
2023/05/15 00:51:26;;;;;;;19.48;11.40;;;17.20;61.80;;;;;;5048043;28;20045;-48
2023/05/15 00:53:55;;;;;;;13.02;10.27;;;17.20;61.90;;;;;;5026217;28;20625;-47
2023/05/15 00:56:23;;;;;;;14.35;11.07;;;17.20;62.00;;;;;;5043862;28;20068;-48
2023/05/15 00:58:54;;;;;;;12.90;10.82;;;17.10;62.00;;;;;;5030518;28;20040;-47
2023/05/15 01:01:21;;;;;;;14.98;11.32;;;17.10;62.30;;;;;;5027252;28;20072;-48
2023/05/15 01:03:54;;;;;;;12.32;10.27;;;17.10;62.10;;;;;;5025162;28;20037;-46
2023/05/15 01:06:21;;;;;;;14.00;10.80;;;17.10;62.10;;;;;;5027208;28;20045;-48
2023/05/15 01:08:49;;;;;;;15.48;10.32;;;17.00;62.20;;;;;;5028778;28;20045;-48
2023/05/15 01:11:16;;;;;;;12.57;11.13;;;17.00;62.30;;;;;;5029449;28;20049;-50
2023/05/15 01:13:45;;;;;;;13.38;11.10;;;17.00;62.30;;;;;;5022579;28;20064;-48
2023/05/15 01:16:11;;;;;;;14.18;11.88;;;17.00;62.40;;;;;;5052013;28;20037;-48
2023/05/15 01:18:40;;;;;;;12.00;10.48;;;17.00;62.50;;;;;;5033709;28;20072;-47
2023/05/15 01:21:34;;;;;;;12.07;9.95;;;17.00;62.50;;;;;;5033728;28;20045;-46
2023/05/15 01:24:21;;;;;;;15.75;11.02;;;17.00;63.00;;;;;;5047122;28;20041;-48
2023/05/15 01:27:21;;;;;;;13.95;10.82;;;17.00;62.40;;;;;;5048547;28;20120;-49
2023/05/15 01:29:54;;;;;;;13.75;10.52;;;16.90;63.10;;;;;;5044361;28;20041;-47
2023/05/15 01:32:27;;;;;;;12.35;10.82;;;16.90;62.70;;;;;;5052873;28;20049;-48
2023/05/15 01:35:09;;;;;;;15.75;11.35;;;16.90;62.90;;;;;;5034405;28;20629;-46
2023/05/15 01:37:48;;;;;;;13.90;11.57;;;16.90;63.20;;;;;;5032867;28;20140;-48
2023/05/15 01:40:19;;;;;;;12.50;10.43;;;16.80;63.00;;;;;;5032540;28;20437;-48
2023/05/15 01:42:54;;;;;;;14.40;12.00;;;16.80;62.80;;;;;;5034469;28;20045;-46
2023/05/15 01:45:24;;;;;;;15.10;12.88;;;16.80;63.10;;;;;;5053538;28;20036;-47
2023/05/15 01:47:55;;;;;;;17.38;12.57;;;16.80;63.20;;;;;;5050994;28;20039;-47
2023/05/15 01:50:34;;;;;;;18.20;12.63;;;16.70;63.20;;;;;;5050666;28;20064;-48
2023/05/15 01:53:06;;;;;;;23.35;14.60;;;16.70;63.40;;;;;;5050777;28;20037;-48
2023/05/15 01:55:37;;;;;;;16.95;14.07;;;16.70;63.50;;;;;;5057326;28;20550;-49
2023/05/15 01:58:07;;;;;;;20.17;14.00;;;16.70;63.60;;;;;;5029791;28;20128;-46
2023/05/15 02:00:35;;;;;;;17.38;14.32;;;16.60;63.60;;;;;;5031469;28;20038;-46
2023/05/15 02:03:04;;;;;;;17.38;14.90;;;16.60;64.00;;;;;;5029169;28;20053;-48
2023/05/15 02:05:34;;;;;;;22.77;15.27;;;16.60;64.30;;;;;;5028506;28;20051;-47
2023/05/15 02:08:04;;;;;;;19.77;15.10;;;16.50;64.40;;;;;;5037087;28;20409;-49
2023/05/15 02:10:36;;;;;;;20.13;15.43;;;16.60;64.70;;;;;;5029908;28;20041;-48
2023/05/15 02:13:04;;;;;;;22.98;17.45;;;16.60;64.70;;;;;;5028455;28;20038;-48
2023/05/15 02:15:33;;;;;;;24.15;18.45;;;16.60;65.00;;;;;;5032862;28;20049;-48
2023/05/15 02:18:04;;;;;;;22.52;17.05;;;16.60;65.00;;;;;;5029441;28;20136;-47
2023/05/15 02:20:36;;;;;;;21.42;17.60;;;16.60;64.80;;;;;;5038948;28;20041;-48
2023/05/15 02:23:02;;;;;;;22.90;16.83;;;16.60;65.50;;;;;;5014923;28;20490;-46
2023/05/15 02:25:43;;;;;;;24.50;17.48;;;16.60;64.80;;;;;;5027147;28;20524;-48
2023/05/15 02:28:25;;;;;;;21.65;17.67;;;16.60;65.30;;;;;;5032592;28;20049;-50
2023/05/15 02:31:01;;;;;;;21.73;17.45;;;16.60;65.30;;;;;;5032863;28;20048;-51
2023/05/15 02:33:35;;;;;;;20.45;17.13;;;16.60;64.90;;;;;;5027274;28;20056;-48
2023/05/15 02:36:06;;;;;;;23.67;17.42;;;16.60;64.90;;;;;;5050111;28;20701;-50
2023/05/15 02:38:43;;;;;;;23.65;18.23;;;16.60;64.90;;;;;;5051326;22;20053;-46
2023/05/15 02:41:12;;;;;;;24.02;18.35;;;16.60;64.80;;;;;;5049976;28;20036;-46
2023/05/15 02:43:42;;;;;;;22.58;17.83;;;16.60;64.50;;;;;;5048512;28;20041;-46
2023/05/15 02:46:09;;;;;;;22.25;17.23;;;16.60;64.60;;;;;;5034822;28;20140;-46
2023/05/15 02:48:41;;;;;;;21.40;17.80;;;16.50;64.60;;;;;;5049751;28;20072;-47
2023/05/15 02:51:12;;;;;;;25.77;19.85;;;16.50;64.50;;;;;;5049975;28;20041;-45
2023/05/15 02:53:40;;;;;;;22.00;18.88;;;16.50;64.60;;;;;;5049729;28;20095;-47
2023/05/15 02:56:09;;;;;;;24.40;18.80;;;16.40;64.50;;;;;;5031043;28;20059;-46
2023/05/15 02:58:39;;;;;;;26.70;19.52;;;16.40;64.50;;;;;;5049461;28;20080;-45
2023/05/15 03:01:07;;;;;;;26.55;19.08;;;16.40;64.70;;;;;;5049321;28;20564;-48
2023/05/15 03:03:34;;;;;;;26.45;18.95;;;16.30;64.60;;;;;;5029538;28;20037;-45
2023/05/15 03:06:03;;;;;;;24.40;19.27;;;16.30;64.70;;;;;;5032166;28;20049;-48
2023/05/15 03:08:29;;;;;;;27.25;20.92;;;16.30;64.80;;;;;;5031309;28;20056;-48
2023/05/15 03:10:56;;;;;;;26.30;18.90;;;16.20;64.70;;;;;;5049213;28;20208;-46
2023/05/15 03:13:27;;;;;;;23.30;19.27;;;16.20;64.70;;;;;;5024455;28;20042;-45
2023/05/15 03:15:54;;;;;;;23.13;18.42;;;16.20;64.80;;;;;;5048861;28;20464;-47
2023/05/15 03:18:21;;;;;;;27.30;19.52;;;16.20;64.80;;;;;;5048992;28;20040;-46
2023/05/15 03:20:51;;;;;;;23.35;18.23;;;16.20;64.80;;;;;;5030772;28;20048;-47
2023/05/15 03:23:20;;;;;;;25.80;18.67;;;16.10;64.80;;;;;;5029079;28;20065;-45
2023/05/15 03:25:49;;;;;;;26.63;18.40;;;16.10;64.70;;;;;;5049979;28;20037;-50
2023/05/15 03:28:16;;;;;;;22.85;18.50;;;16.10;64.70;;;;;;5031794;28;20131;-49
2023/05/15 03:30:44;;;;;;;24.67;18.45;;;16.00;64.70;;;;;;5032201;28;20421;-49
2023/05/15 03:33:12;;;;;;;24.00;18.30;;;16.00;64.70;;;;;;5030384;28;20036;-47
2023/05/15 03:35:41;;;;;;;24.20;17.83;;;16.00;64.50;;;;;;5048601;28;20037;-47
2023/05/15 03:38:17;;;;;;;25.20;19.48;;;15.90;64.60;;;;;;5031192;28;20045;-46
2023/05/15 03:40:44;;;;;;;25.20;19.63;;;15.90;64.70;;;;;;5048960;28;20037;-46
2023/05/15 03:43:18;;;;;;;31.23;20.23;;;15.80;64.80;;;;;;5049586;28;20045;-50
2023/05/15 03:45:48;;;;;;;23.30;18.30;;;15.80;64.80;;;;;;5048761;28;20041;-49
2023/05/15 03:48:15;;;;;;;23.50;18.02;;;15.80;65.10;;;;;;5033115;28;20048;-45
2023/05/15 03:50:44;;;;;;;22.38;18.63;;;15.70;65.00;;;;;;5028278;28;20048;-48
2023/05/15 03:53:11;;;;;;;26.33;18.77;;;15.70;65.30;;;;;;5030601;28;20048;-45
2023/05/15 03:55:41;;;;;;;22.00;18.15;;;15.70;65.30;;;;;;5030789;28;20057;-45
2023/05/15 03:58:08;;;;;;;28.42;18.27;;;15.60;65.40;;;;;;5031307;28;20052;-46
2023/05/15 04:00:34;;;;;;;28.17;20.58;;;15.60;65.50;;;;;;5049791;28;20041;-48
2023/05/15 04:03:04;;;;;;;26.52;20.13;;;15.60;65.70;;;;;;5048162;28;20037;-45
2023/05/15 04:05:31;;;;;;;24.42;18.77;;;15.50;65.80;;;;;;5049823;28;20045;-50
2023/05/15 04:08:00;;;;;;;25.98;20.35;;;15.50;65.80;;;;;;5046443;28;20095;-46
2023/05/15 04:10:26;;;;;;;27.67;19.58;;;15.50;66.00;;;;;;5045895;28;20048;-48
2023/05/15 04:12:53;;;;;;;23.80;19.15;;;15.50;65.90;;;;;;5046750;28;20045;-49
2023/05/15 04:15:25;;;;;;;27.85;20.67;;;15.40;65.90;;;;;;5049422;28;20045;-47
2023/05/15 04:17:53;;;;;;;25.73;20.20;;;15.40;66.30;;;;;;5048604;28;20099;-50
2023/05/15 04:20:24;;;;;;;26.98;19.52;;;15.40;66.00;;;;;;5050002;28;20063;-50
2023/05/15 04:22:53;;;;;;;23.23;19.33;;;15.40;66.10;;;;;;5048163;28;20555;-47
2023/05/15 04:25:24;;;;;;;25.33;19.63;;;15.40;66.20;;;;;;5049312;28;20080;-50
2023/05/15 04:27:51;;;;;;;27.23;20.35;;;15.40;66.30;;;;;;5048206;28;20072;-46
2023/05/15 04:30:23;;;;;;;27.13;20.23;;;15.30;66.30;;;;;;5049192;28;20041;-48
2023/05/15 04:32:50;;;;;;;27.30;20.70;;;15.40;66.40;;;;;;5048789;28;20452;-48
2023/05/15 04:35:20;;;;;;;29.05;21.73;;;15.40;66.50;;;;;;5049194;28;20299;-50
2023/05/15 04:37:47;;;;;;;27.73;20.80;;;15.40;66.70;;;;;;5044412;28;20045;-50
2023/05/15 04:40:15;;;;;;;28.75;20.60;;;15.40;66.80;;;;;;5046615;28;20037;-50
2023/05/15 04:42:42;;;;;;;31.77;20.95;;;15.40;67.00;;;;;;5047056;28;20041;-50
2023/05/15 04:45:09;;;;;;;30.85;22.23;;;15.40;67.00;;;;;;5049263;28;20044;-49
2023/05/15 04:47:36;;;;;;;30.90;21.67;;;15.40;66.90;;;;;;5049530;28;20052;-46
2023/05/15 04:50:03;;;;;;;31.50;22.90;;;15.40;66.90;;;;;;5052681;28;20036;-49
2023/05/15 04:52:31;;;;;;;28.27;21.83;;;15.50;66.80;;;;;;5051338;28;20458;-51
2023/05/15 04:55:00;;;;;;;31.55;22.60;;;15.50;66.60;;;;;;5052449;28;20045;-48
2023/05/15 04:57:27;;;;;;;31.30;23.67;;;15.50;66.70;;;;;;5051800;28;20049;-46
2023/05/15 04:59:54;;;;;;;31.13;23.73;;;15.50;66.80;;;;;;5051740;28;20033;-49
2023/05/15 05:02:21;;;;;;;33.15;23.17;;;15.50;66.90;;;;;;5033734;28;20045;-49
2023/05/15 05:04:48;;;;;;;31.15;22.20;;;15.60;66.60;;;;;;5052535;28;20049;-49
2023/05/15 05:07:15;;;;;;;30.95;21.52;;;15.60;66.20;;;;;;5051779;28;20452;-47
2023/05/15 05:09:41;;;;;;;32.33;22.33;;;15.60;66.30;;;;;;5035171;28;20045;-49
2023/05/15 05:12:08;;;;;;;29.20;21.92;;;15.60;66.00;;;;;;5051185;28;20048;-49
2023/05/15 05:14:35;;;;;;;36.40;25.27;;;15.60;66.00;;;;;;5050988;28;20049;-49
2023/05/15 05:17:02;;;;;;;30.15;21.27;;;15.60;65.80;;;;;;5050464;28;20049;-49
2023/05/15 05:19:29;;;;;;;30.27;22.55;;;15.60;65.60;;;;;;5052545;28;20090;-47
2023/05/15 05:22:03;;;;;;;33.63;23.42;;;15.60;65.40;;;;;;5050940;28;20033;-51
2023/05/15 05:24:30;;;;;;;35.65;23.63;;;15.60;65.40;;;;;;5050656;28;20448;-49
2023/05/15 05:26:57;;;;;;;32.65;22.90;;;15.60;65.30;;;;;;5050808;28;20041;-47
2023/05/15 05:29:28;;;;;;;29.35;21.80;;;15.60;65.40;;;;;;5048766;28;20045;-48
2023/05/15 05:31:54;;;;;;;31.45;23.42;;;15.60;65.30;;;;;;5048107;28;20052;-49
2023/05/15 05:34:21;;;;;;;28.77;21.05;;;15.60;65.30;;;;;;5051093;28;20052;-51
2023/05/15 05:36:48;;;;;;;29.15;21.75;;;15.60;65.30;;;;;;5050704;28;20056;-51
2023/05/15 05:39:15;;;;;;;28.85;23.05;;;15.60;65.30;;;;;;5050132;28;20068;-49
2023/05/15 05:41:43;;;;;;;31.70;23.00;;;15.60;65.30;;;;;;5050085;28;20045;-51
2023/05/15 05:44:10;;;;;;;35.35;24.67;;;15.60;65.30;;;;;;5048530;28;20045;-49
2023/05/15 05:46:36;;;;;;;31.30;23.65;;;15.70;65.40;;;;;;5049118;28;20045;-49
2023/05/15 05:49:03;;;;;;;32.60;23.83;;;15.70;65.30;;;;;;5049886;28;20044;-49
2023/05/15 05:51:30;;;;;;;35.65;23.10;;;15.70;65.30;;;;;;5050484;28;20041;-48
2023/05/15 05:53:57;;;;;;;28.63;22.20;;;15.70;65.30;;;;;;5049788;28;20036;-47
2023/05/15 05:56:25;;;;;;;30.00;22.38;;;15.70;65.40;;;;;;5049394;28;20064;-48
2023/05/15 05:58:52;;;;;;;32.13;23.45;;;15.80;65.50;;;;;;5049362;28;20037;-49
2023/05/15 06:01:19;;;;;;;31.85;22.88;;;15.80;65.60;;;;;;5050193;28;20037;-46
2023/05/15 06:03:45;;;;;;;33.88;23.08;;;15.90;65.50;;;;;;5049100;28;20045;-47
2023/05/15 06:06:12;;;;;;;32.80;23.48;;;15.90;65.50;;;;;;5050093;28;20049;-46
2023/05/15 06:08:39;;;;;;;36.20;24.77;;;16.00;65.50;;;;;;5050145;28;20052;-51
2023/05/15 06:11:06;;;;;;;28.50;21.67;;;16.00;65.60;;;;;;5050467;28;20083;-47
2023/05/15 06:13:32;;;;;;;34.13;22.75;;;16.10;65.50;;;;;;5048585;28;20119;-46
2023/05/15 06:15:59;;;;;;;32.05;23.15;;;16.10;65.30;;;;;;5050369;28;20071;-49
2023/05/15 06:18:25;;;;;;;31.83;22.80;;;16.20;65.10;;;;;;5032413;28;20041;-45
2023/05/15 06:20:52;;;;;;;31.88;23.45;;;16.20;65.20;;;;;;5032819;28;20037;-50
2023/05/15 06:23:19;;;;;;;35.42;24.42;;;16.30;65.50;;;;;;5051400;28;20060;-49
2023/05/15 06:25:46;;;;;;;32.13;23.05;;;16.30;65.10;;;;;;5052475;28;20032;-50
2023/05/15 06:28:13;;;;;;;34.75;25.65;;;16.30;65.40;;;;;;5050214;28;20045;-50
2023/05/15 06:30:40;;;;;;;35.72;23.95;;;16.40;65.10;;;;;;5050228;28;20076;-50
2023/05/15 06:33:06;;;;;;;35.28;26.20;;;16.40;65.00;;;;;;5049380;28;20052;-47
2023/05/15 06:35:36;;;;;;;34.80;26.38;;;16.50;64.70;;;;;;5049675;28;20067;-47
2023/05/15 06:38:02;;;;;;;38.00;25.33;;;16.50;64.50;;;;;;5046941;28;20051;-45
2023/05/15 06:40:29;;;;;;;35.95;26.52;;;16.50;64.10;;;;;;5051435;28;20524;-50
2023/05/15 06:42:56;;;;;;;37.22;26.42;;;16.50;63.80;;;;;;5049350;28;20049;-46
2023/05/15 06:45:22;;;;;;;34.10;26.35;;;16.50;63.70;;;;;;5048836;28;20060;-49
2023/05/15 06:47:49;;;;;;;40.45;27.58;;;16.50;63.60;;;;;;5051701;28;20036;-46
2023/05/15 06:50:16;;;;;;;33.45;25.10;;;16.50;63.20;;;;;;5051365;28;20041;-47
2023/05/15 06:52:42;;;;;;;33.88;25.25;;;16.50;63.20;;;;;;5048952;28;20132;-48
2023/05/15 06:55:10;;;;;;;34.33;24.90;;;16.50;63.20;;;;;;5047690;28;20049;-46
2023/05/15 06:57:37;;;;;;;33.50;26.25;;;16.40;63.20;;;;;;5049327;28;20053;-49
2023/05/15 07:00:04;;;;;;;34.22;26.23;;;16.40;63.20;;;;;;5050335;28;20075;-50
2023/05/15 07:02:33;;;;;;;35.47;25.40;;;16.40;63.50;;;;;;5049660;28;20044;-46
2023/05/15 07:05:00;;;;;;;37.55;26.23;;;16.30;63.50;;;;;;5050519;28;20072;-49
2023/05/15 07:07:27;;;;;;;35.28;27.40;;;16.30;63.50;;;;;;5049188;28;20075;-47
2023/05/15 07:09:53;;;;;;;34.58;25.10;;;16.30;63.90;;;;;;5049277;28;20045;-46
2023/05/15 07:12:20;;;;;;;34.22;26.05;;;16.30;63.60;;;;;;5049585;28;20476;-50
2023/05/15 07:14:46;;;;;;;36.67;27.50;;;16.30;63.70;;;;;;5048323;28;20048;-50
2023/05/15 07:17:13;;;;;;;38.38;28.40;;;16.30;63.60;;;;;;5048958;28;20103;-48
2023/05/15 07:19:40;;;;;;;37.30;27.10;;;16.30;63.70;;;;;;5050639;28;20045;-46
2023/05/15 07:22:07;;;;;;;35.30;27.05;;;16.30;63.50;;;;;;5050103;28;20037;-49
2023/05/15 07:24:34;;;;;;;36.78;28.13;;;16.30;63.40;;;;;;5048445;28;20045;-47
2023/05/15 07:27:05;;;;;;;38.17;27.77;;;16.20;63.40;;;;;;5041823;28;20041;-49
2023/05/15 07:29:32;;;;;;;37.97;27.77;;;16.20;63.40;;;;;;5050223;28;20041;-49
2023/05/15 07:31:59;;;;;;;36.22;27.33;;;16.20;63.50;;;;;;5049034;28;20505;-48
2023/05/15 07:34:25;;;;;;;34.30;26.42;;;16.20;63.70;;;;;;5049348;28;20405;-47
2023/05/15 07:36:55;;;;;;;35.58;27.05;;;16.20;63.40;;;;;;5047934;28;20123;-49
2023/05/15 07:39:21;;;;;;;38.75;26.70;;;16.20;63.00;;;;;;5050250;28;20033;-46
2023/05/15 07:41:48;;;;;;;33.22;25.45;;;16.20;63.20;;;;;;5025894;28;20099;-50
2023/05/15 07:44:15;;;;;;;34.72;25.05;;;16.30;63.40;;;;;;5051617;28;20060;-48
2023/05/15 07:46:42;;;;;;;30.98;22.63;;;16.30;63.20;;;;;;5047826;28;20044;-49
2023/05/15 07:49:08;;;;;;;30.85;23.73;;;16.30;62.60;;;;;;5049863;28;20123;-46
2023/05/15 07:51:35;;;;;;;34.92;26.10;;;16.30;62.40;;;;;;5048810;28;20045;-50
2023/05/15 07:54:03;;;;;;;31.92;25.65;;;16.40;62.30;;;;;;5047899;28;20041;-45
2023/05/15 07:56:29;;;;;;;30.40;23.13;;;16.40;62.40;;;;;;5049004;28;20561;-48
2023/05/15 07:58:56;;;;;;;32.33;24.27;;;16.40;62.70;;;;;;5049006;28;20051;-45
2023/05/15 08:01:23;;;;;;;30.48;24.10;;;16.40;62.50;;;;;;5050075;28;20047;-49
2023/05/15 08:03:49;;;;;;;33.72;23.80;;;16.50;62.30;;;;;;5047368;28;20056;-46
2023/05/15 08:06:16;;;;;;;30.73;23.45;;;16.50;61.90;;;;;;5047977;28;20098;-51
2023/05/15 08:08:43;;;;;;;32.15;21.85;;;16.60;61.20;;;;;;5048876;28;20037;-49
2023/05/15 08:11:09;;;;;;;27.23;22.23;;;16.60;61.30;;;;;;5049334;28;20460;-47
2023/05/15 08:13:36;;;;;;;30.35;22.50;;;16.60;61.20;;;;;;5047152;28;20040;-46
2023/05/15 08:16:03;;;;;;;28.75;22.15;;;16.70;61.00;;;;;;5047371;28;20127;-48
2023/05/15 08:18:30;;;;;;;27.48;21.73;;;16.70;60.60;;;;;;5048742;28;20382;-46
2023/05/15 08:20:56;;;;;;;28.23;21.75;;;16.70;60.10;;;;;;5045167;28;20041;-49
2023/05/15 08:23:23;;;;;;;28.02;21.08;;;16.80;60.30;;;;;;5052778;28;20032;-50
2023/05/15 08:25:49;;;;;;;27.92;21.73;;;16.80;59.90;;;;;;5051590;28;20041;-50
2023/05/15 08:28:16;;;;;;;26.58;20.60;;;16.90;59.80;;;;;;5051917;28;20045;-46
2023/05/15 08:30:43;;;;;;;26.08;21.13;;;16.90;60.10;;;;;;5051762;28;20045;-51
2023/05/15 08:33:09;;;;;;;25.55;19.38;;;17.00;59.60;;;;;;5034977;28;20040;-49
2023/05/15 08:35:36;;;;;;;26.27;19.83;;;17.00;59.60;;;;;;5051264;28;20459;-51
2023/05/15 08:38:03;;;;;;;23.88;19.70;;;17.00;59.10;;;;;;5051901;28;20049;-45
2023/05/15 08:40:32;;;;;;;26.50;20.00;;;17.10;58.90;;;;;;5239725;22;20049;-50
2023/05/15 08:43:13;;;;;;;25.95;19.95;;;17.10;59.50;;;;;;5030410;28;20374;-48
2023/05/15 08:45:40;;;;;;;24.77;20.63;;;17.10;59.70;;;;;;5030667;28;20053;-51
2023/05/15 08:48:14;;;;;;;27.00;20.25;;;17.20;59.90;;;;;;5025946;28;20418;-49
2023/05/15 08:50:43;;;;;;;22.10;18.48;;;17.30;60.80;;;;;;5033005;28;20520;-49
2023/05/15 08:53:12;;;;;;;22.17;17.05;;;17.30;59.40;;;;;;5025906;28;20103;-48
2023/05/15 08:55:40;;;;;;;22.02;18.20;;;17.40;58.70;;;;;;5021152;28;20053;-51
2023/05/15 08:58:07;;;;;;;26.17;21.25;;;17.40;58.70;;;;;;5018222;28;20056;-50
2023/05/15 09:00:34;;;;;;;25.27;20.13;;;17.50;60.00;;;;;;5033136;28;20041;-48
2023/05/15 09:03:01;;;;;;;25.80;19.70;;;17.50;59.60;;;;;;5020548;28;20462;-49
2023/05/15 09:05:29;;;;;;;22.05;19.13;;;17.60;59.20;;;;;;5019190;28;20033;-51
2023/05/15 09:07:57;;;;;;;29.70;20.23;;;17.60;58.50;;;;;;5028307;28;20041;-52
2023/05/15 09:10:24;;;;;;;24.38;19.48;;;17.70;57.90;;;;;;5022598;28;20048;-50
2023/05/15 09:12:52;;;;;;;27.85;20.35;;;17.70;58.50;;;;;;4992526;28;20133;-51
2023/05/15 09:15:21;;;;;;;26.83;21.10;;;17.80;58.40;;;;;;5012494;28;20092;-50
2023/05/15 09:17:49;;;;;;;27.40;20.30;;;17.80;58.40;;;;;;5020394;28;20069;-51
2023/05/15 09:20:26;;;;;;;28.13;21.50;;;17.80;58.30;;;;;;5032844;28;20076;-51
2023/05/15 09:22:54;;;;;;;26.15;20.27;;;17.90;57.10;;;;;;5026537;28;20066;-49
2023/05/15 09:25:36;;;;;;;25.52;20.88;;;17.90;58.20;;;;;;5018810;28;20494;-51
2023/05/15 09:28:04;;;;;;;28.27;20.70;;;18.00;57.60;;;;;;5031340;28;20505;-48
2023/05/15 09:30:30;;;;;;;26.27;19.27;;;18.00;58.20;;;;;;5032834;28;20048;-50
2023/05/15 09:33:02;;;;;;;21.83;17.75;;;18.00;57.60;;;;;;5018441;28;20053;-47
2023/05/15 09:35:39;;;;;;;24.83;18.40;;;18.10;55.60;;;;;;5018648;28;20041;-52
2023/05/15 09:38:11;;;;;;;22.05;17.08;;;18.20;56.70;;;;;;5031305;28;20164;-53
2023/05/15 09:40:41;;;;;;;25.23;19.60;;;18.20;56.00;;;;;;5022627;28;20037;-54
2023/05/15 09:43:11;;;;;;;26.33;20.52;;;18.20;56.70;;;;;;5023021;28;20067;-53
2023/05/15 09:45:37;;;;;;;26.23;19.23;;;18.30;57.10;;;;;;5014401;28;20038;-52
2023/05/15 09:48:05;;;;;;;24.58;18.27;;;18.30;57.00;;;;;;5021913;28;20502;-53
2023/05/15 09:50:34;;;;;;;23.38;16.35;;;18.40;57.20;;;;;;5032771;28;20069;-52
2023/05/15 09:53:03;;;;;;;24.17;17.73;;;18.40;56.40;;;;;;5027036;28;20056;-50
2023/05/15 09:55:32;;;;;;;24.50;17.85;;;18.50;55.70;;;;;;5020454;28;20145;-50
2023/05/15 09:58:07;;;;;;;20.83;16.70;;;18.50;56.10;;;;;;5026288;28;20045;-52
2023/05/15 10:00:35;;;;;;;26.75;19.15;;;18.60;55.10;;;;;;4999534;28;20056;-52
2023/05/15 10:03:13;;;;;;;25.60;19.33;;;18.70;55.40;;;;;;5014463;28;20045;-50
2023/05/15 10:05:40;;;;;;;26.02;20.45;;;18.70;56.10;;;;;;5019980;28;20121;-51
2023/05/15 10:08:10;;;;;;;31.45;21.10;;;18.70;56.10;;;;;;5019157;28;20045;-51
2023/05/15 10:10:36;;;;;;;28.67;19.90;;;18.80;55.60;;;;;;5024957;28;20049;-53
2023/05/15 10:13:04;;;;;;;32.72;21.10;;;18.80;55.60;;;;;;5021327;28;20050;-51
2023/05/15 10:15:37;;;;;;;27.65;20.45;;;18.90;55.60;;;;;;5010951;28;20092;-52
2023/05/15 10:18:05;;;;;;;27.10;20.17;;;18.90;55.20;;;;;;5028309;28;20056;-54
2023/05/15 10:20:34;;;;;;;25.10;19.48;;;19.00;55.60;;;;;;5024386;28;20050;-54
2023/05/15 10:23:03;;;;;;;26.08;19.55;;;19.00;55.60;;;;;;5019003;28;20056;-51
2023/05/15 10:25:57;;;;;;;22.52;16.05;;;19.10;54.60;;;;;;5010745;28;20045;-50
2023/05/15 10:28:24;;;;;;;19.33;14.70;;;19.10;53.30;;;;;;5023109;28;20037;-53
2023/05/15 10:30:51;;;;;;;18.55;14.00;;;19.20;54.30;;;;;;5023830;28;20053;-49
2023/05/15 10:33:19;;;;;;;19.77;14.18;;;19.20;53.80;;;;;;5013055;28;20049;-52
2023/05/15 10:35:47;;;;;;;18.17;13.35;;;19.30;53.20;;;;;;5009379;28;20046;-51
2023/05/15 10:38:14;;;;;;;17.00;13.38;;;19.30;53.30;;;;;;5016455;28;20124;-49
2023/05/15 10:40:41;;;;;;;20.65;13.73;;;19.40;53.10;;;;;;5016276;28;20100;-49
2023/05/15 10:43:10;;;;;;;16.17;12.68;;;19.50;53.30;;;;;;5011692;28;20034;-48
2023/05/15 10:45:38;;;;;;;11.93;10.13;;;19.50;53.20;;;;;;5007373;28;20050;-50
2023/05/15 10:48:07;;;;;;;13.95;11.43;;;19.60;52.50;;;;;;5025092;28;20096;-52
2023/05/15 10:50:36;;;;;;;13.32;9.98;;;19.70;50.50;;;;;;5024284;28;20041;-50
2023/05/15 10:53:03;;;;;;;13.75;11.07;;;19.70;50.60;;;;;;5027936;28;20053;-53
2023/05/15 10:55:30;;;;;;;16.85;12.25;;;19.80;51.70;;;;;;5007407;28;20038;-52
2023/05/15 10:57:56;;;;;;;16.55;12.93;;;19.90;51.70;;;;;;5026964;28;20064;-49
2023/05/15 11:00:27;;;;;;;22.45;16.20;;;20.00;51.10;;;;;;5030511;28;20539;-53
2023/05/15 11:02:58;;;;;;;21.95;15.40;;;20.00;51.50;;;;;;5025368;28;20034;-47
2023/05/15 11:05:25;;;;;;;21.85;17.05;;;20.10;51.60;;;;;;5016396;28;20112;-51
2023/05/15 11:08:16;;;;;;;19.08;15.27;;;20.20;51.70;;;;;;5009463;28;20038;-50
2023/05/15 11:10:43;;;;;;;20.80;17.35;;;20.30;51.30;;;;;;5007446;28;20073;-50
2023/05/15 11:13:10;;;;;;;20.33;15.93;;;20.30;51.20;;;;;;5006243;28;20657;-48
2023/05/15 11:15:45;;;;;;;19.17;16.17;;;20.30;51.40;;;;;;5011086;28;20041;-50
2023/05/15 11:18:13;;;;;;;20.45;16.08;;;20.40;51.30;;;;;;5025459;28;21013;-47
2023/05/15 11:20:56;;;;;;;20.88;17.15;;;20.50;50.90;;;;;;5022206;28;20125;-48
2023/05/15 11:23:24;;;;;;;18.40;16.10;;;20.50;51.40;;;;;;5009181;28;20080;-49
2023/05/15 11:25:57;;;;;;;20.75;14.85;;;20.60;51.10;;;;;;5021523;28;20064;-51
2023/05/15 11:28:26;;;;;;;17.48;12.95;;;20.70;50.70;;;;;;5021420;28;20397;-48
2023/05/15 11:31:05;;;;;;;14.45;11.52;;;20.80;50.40;;;;;;5017707;28;20041;-49
2023/05/15 11:33:32;;;;;;;18.48;14.55;;;20.80;49.30;;;;;;5027484;28;20793;-47
2023/05/15 11:36:04;;;;;;;20.17;15.00;;;20.90;50.30;;;;;;5006250;28;20077;-47
2023/05/15 11:38:36;;;;;;;21.50;16.52;;;21.00;49.90;;;;;;5009621;28;20696;-51
2023/05/15 11:41:16;;;;;;;19.83;16.65;;;21.10;50.90;;;;;;5014153;28;20050;-49
2023/05/15 11:43:43;;;;;;;16.00;14.27;;;21.20;50.70;;;;;;5018074;28;20108;-50
2023/05/15 11:46:12;;;;;;;17.38;14.57;;;21.30;50.70;;;;;;5010662;28;20056;-51
2023/05/15 11:48:40;;;;;;;17.95;15.25;;;21.40;50.60;;;;;;5027673;28;20136;-51
2023/05/15 11:51:23;;;;;;;19.13;15.98;;;21.40;50.30;;;;;;5024148;28;20046;-46
2023/05/15 11:53:52;;;;;;;17.83;15.32;;;21.60;50.30;;;;;;5025839;28;20484;-51
2023/05/15 11:56:21;;;;;;;18.17;15.57;;;21.70;50.60;;;;;;5020109;28;20042;-51
2023/05/15 11:58:49;;;;;;;16.02;14.10;;;21.80;50.70;;;;;;5008108;28;20046;-47
2023/05/15 12:01:16;;;;;;;16.80;14.95;;;21.90;50.10;;;;;;5014733;28;20398;-51
2023/05/15 12:03:46;;;;;;;17.00;15.25;;;22.10;49.80;;;;;;5008869;28;20038;-51
2023/05/15 12:06:13;;;;;;;15.82;13.77;;;22.30;50.30;;;;;;5005613;28;20045;-50
2023/05/15 12:08:41;;;;;;;13.93;12.52;;;22.50;49.70;;;;;;5020562;28;20052;-51
2023/05/15 12:11:07;;;;;;;17.55;14.80;;;22.70;48.90;;;;;;5028051;28;20053;-51
2023/05/15 12:13:34;;;;;;;19.23;15.43;;;22.90;48.50;;;;;;5010405;28;20096;-51
2023/05/15 12:16:04;;;;;;;19.95;15.88;;;23.10;48.10;;;;;;5010328;28;20069;-51
2023/05/15 12:18:32;;;;;;;20.80;17.75;;;23.20;48.30;;;;;;5019677;28;20041;-51
2023/05/15 12:20:59;;;;;;;19.85;17.13;;;23.20;48.40;;;;;;5029955;28;20045;-51
2023/05/15 12:23:27;;;;;;;19.60;17.52;;;23.20;47.80;;;;;;5013027;28;20045;-46
2023/05/15 12:25:58;;;;;;;19.95;17.38;;;23.20;47.50;;;;;;5022800;28;20108;-50
2023/05/15 12:28:25;;;;;;;20.98;17.75;;;23.20;47.40;;;;;;5020891;28;20049;-51
2023/05/15 12:30:53;;;;;;;21.02;18.63;;;23.10;47.70;;;;;;5021444;28;20072;-51
2023/05/15 12:33:20;;;;;;;18.50;16.30;;;23.00;47.70;;;;;;5013664;28;20107;-50
2023/05/15 12:35:54;;;;;;;20.48;18.38;;;22.90;47.70;;;;;;5028919;28;20049;-49
2023/05/15 12:38:25;;;;;;;20.85;17.02;;;22.80;47.30;;;;;;5021190;28;20406;-49